sensor_id;sensor_type;location;lat;lon;timestamp;pressure;altitude;pressure_sealevel;temperature;humidity
56681;BME280;42558;52.388;13.390;2022-07-17T00:01:00;102056.17;;;12.80;67.67
56681;BME280;42558;52.388;13.390;2022-07-17T00:03:27;102059.45;;;12.91;67.03
56681;BME280;42558;52.388;13.390;2022-07-17T00:05:53;102058.09;;;12.86;66.75
56681;BME280;42558;52.388;13.390;2022-07-17T00:08:20;102062.25;;;12.82;66.98
56681;BME280;42558;52.388;13.390;2022-07-17T00:11:02;102065.93;;;12.67;67.51
56681;BME280;42558;52.388;13.390;2022-07-17T00:13:30;102066.89;;;12.58;68.18
56681;BME280;42558;52.388;13.390;2022-07-17T00:16:13;102067.45;;;12.51;68.30
56681;BME280;42558;52.388;13.390;2022-07-17T00:19:24;102066.96;;;12.53;68.69
56681;BME280;42558;52.388;13.390;2022-07-17T00:21:59;102068.16;;;12.52;69.08
56681;BME280;42558;52.388;13.390;2022-07-17T00:24:27;102069.20;;;12.51;68.98
56681;BME280;42558;52.388;13.390;2022-07-17T00:27:12;102070.24;;;12.44;69.15
56681;BME280;42558;52.388;13.390;2022-07-17T00:30:06;102072.74;;;12.26;70.05
56681;BME280;42558;52.388;13.390;2022-07-17T00:32:49;102071.75;;;12.28;69.94
56681;BME280;42558;52.388;13.390;2022-07-17T00:35:55;102069.15;;;12.56;68.83
56681;BME280;42558;52.388;13.390;2022-07-17T00:38:37;102072.51;;;12.56;68.35
56681;BME280;42558;52.388;13.390;2022-07-17T00:41:19;102068.91;;;12.60;68.15
56681;BME280;42558;52.388;13.390;2022-07-17T00:44:10;102068.94;;;12.82;67.65
56681;BME280;42558;52.388;13.390;2022-07-17T00:46:54;102064.20;;;12.83;66.77
56681;BME280;42558;52.388;13.390;2022-07-17T00:49:35;102069.45;;;12.81;67.14
56681;BME280;42558;52.388;13.390;2022-07-17T00:52:18;102066.70;;;12.84;67.02
56681;BME280;42558;52.388;13.390;2022-07-17T00:54:59;102064.46;;;12.65;67.18
56681;BME280;42558;52.388;13.390;2022-07-17T00:57:58;102064.40;;;12.57;67.36
56681;BME280;42558;52.388;13.390;2022-07-17T01:00:57;102063.86;;;12.43;67.77
56681;BME280;42558;52.388;13.390;2022-07-17T01:03:39;102056.15;;;12.13;68.95
56681;BME280;42558;52.388;13.390;2022-07-17T01:06:23;102057.73;;;12.26;68.80
56681;BME280;42558;52.388;13.390;2022-07-17T01:09:09;102062.13;;;12.38;68.41
56681;BME280;42558;52.388;13.390;2022-07-17T01:11:54;102062.55;;;12.34;68.39
56681;BME280;42558;52.388;13.390;2022-07-17T01:14:36;102062.73;;;12.34;68.08
56681;BME280;42558;52.388;13.390;2022-07-17T01:17:07;102063.89;;;12.24;68.22
56681;BME280;42558;52.388;13.390;2022-07-17T01:19:56;102060.12;;;12.22;68.38
56681;BME280;42558;52.388;13.390;2022-07-17T01:22:42;102058.91;;;12.16;68.32
56681;BME280;42558;52.388;13.390;2022-07-17T01:25:28;102058.27;;;11.94;69.16
56681;BME280;42558;52.388;13.390;2022-07-17T01:32:11;102067.77;;;11.26;73.45
56681;BME280;42558;52.388;13.390;2022-07-17T01:34:53;102067.70;;;10.96;74.35
56681;BME280;42558;52.388;13.390;2022-07-17T01:37:34;102067.39;;;10.66;75.93
56681;BME280;42558;52.388;13.390;2022-07-17T01:40:17;102065.19;;;10.89;75.57
56681;BME280;42558;52.388;13.390;2022-07-17T01:42:59;102068.34;;;11.21;73.40
56681;BME280;42558;52.388;13.390;2022-07-17T01:45:41;102068.64;;;11.25;72.84
56681;BME280;42558;52.388;13.390;2022-07-17T01:48:42;102070.90;;;11.08;73.47
56681;BME280;42558;52.388;13.390;2022-07-17T01:52:24;102064.33;;;10.95;73.98
56681;BME280;42558;52.388;13.390;2022-07-17T08:56:03;102240.95;;;16.95;54.98
56681;BME280;42558;52.388;13.390;2022-07-17T08:58:30;102245.96;;;16.68;56.35
56681;BME280;42558;52.388;13.390;2022-07-17T09:00:57;102240.63;;;16.96;56.73
56681;BME280;42558;52.388;13.390;2022-07-17T09:03:24;102240.03;;;16.92;55.22
56681;BME280;42558;52.388;13.390;2022-07-17T09:05:52;102238.20;;;16.86;55.56
56681;BME280;42558;52.388;13.390;2022-07-17T09:08:23;102235.39;;;17.05;54.82
56681;BME280;42558;52.388;13.390;2022-07-17T09:10:53;102233.98;;;17.24;55.38
56681;BME280;42558;52.388;13.390;2022-07-17T09:13:28;102239.85;;;17.25;54.81
56681;BME280;42558;52.388;13.390;2022-07-17T09:16:08;102233.00;;;17.14;55.29
56681;BME280;42558;52.388;13.390;2022-07-17T09:18:52;102237.81;;;16.99;55.24
56681;BME280;42558;52.388;13.390;2022-07-17T09:21:27;102239.27;;;16.86;56.81
56681;BME280;42558;52.388;13.390;2022-07-17T09:24:06;102238.40;;;17.04;55.96
56681;BME280;42558;52.388;13.390;2022-07-17T09:26:35;102239.30;;;17.06;55.79
56681;BME280;42558;52.388;13.390;2022-07-17T09:29:09;102235.63;;;17.11;56.05
56681;BME280;42558;52.388;13.390;2022-07-17T09:31:38;102235.91;;;17.21;55.69
56681;BME280;42558;52.388;13.390;2022-07-17T09:34:17;102237.95;;;16.97;55.95
56681;BME280;42558;52.388;13.390;2022-07-17T09:36:44;102232.22;;;16.90;56.72
56681;BME280;42558;52.388;13.390;2022-07-17T09:39:11;102229.91;;;16.91;56.62
56681;BME280;42558;52.388;13.390;2022-07-17T09:41:38;102231.40;;;16.98;57.15
56681;BME280;42558;52.388;13.390;2022-07-17T09:44:05;102231.02;;;17.13;56.03
56681;BME280;42558;52.388;13.390;2022-07-17T09:46:34;102231.30;;;17.22;56.31
56681;BME280;42558;52.388;13.390;2022-07-17T09:49:05;102235.81;;;16.95;56.12
56681;BME280;42558;52.388;13.390;2022-07-17T09:51:39;102230.55;;;16.85;56.73
56681;BME280;42558;52.388;13.390;2022-07-17T09:54:09;102234.42;;;16.98;56.56
56681;BME280;42558;52.388;13.390;2022-07-17T09:56:39;102235.24;;;16.92;56.90
56681;BME280;42558;52.388;13.390;2022-07-17T09:59:09;102242.30;;;16.88;56.54
56681;BME280;42558;52.388;13.390;2022-07-17T10:01:40;102243.01;;;17.19;57.13
56681;BME280;42558;52.388;13.390;2022-07-17T10:04:10;102243.90;;;17.57;55.37
56681;BME280;42558;52.388;13.390;2022-07-17T10:06:38;102237.16;;;17.41;55.22
56681;BME280;42558;52.388;13.390;2022-07-17T10:09:05;102232.91;;;17.85;54.63
56681;BME280;42558;52.388;13.390;2022-07-17T10:11:40;102223.96;;;18.32;52.74
56681;BME280;42558;52.388;13.390;2022-07-17T10:14:16;102221.60;;;18.59;52.15
56681;BME280;42558;52.388;13.390;2022-07-17T10:16:44;102222.99;;;18.55;52.22
56681;BME280;42558;52.388;13.390;2022-07-17T10:19:22;102224.88;;;18.37;52.55
56681;BME280;42558;52.388;13.390;2022-07-17T10:21:57;102222.55;;;18.37;52.12
56681;BME280;42558;52.388;13.390;2022-07-17T10:24:27;102214.36;;;18.36;52.49
56681;BME280;42558;52.388;13.390;2022-07-17T10:26:56;102213.16;;;18.43;51.81
56681;BME280;42558;52.388;13.390;2022-07-17T10:29:37;102208.95;;;18.55;51.70
56681;BME280;42558;52.388;13.390;2022-07-17T10:32:18;102211.59;;;18.53;51.34
56681;BME280;42558;52.388;13.390;2022-07-17T10:34:57;102220.06;;;18.03;52.28
56681;BME280;42558;52.388;13.390;2022-07-17T10:37:45;102216.08;;;17.93;52.79
56681;BME280;42558;52.388;13.390;2022-07-17T10:40:20;102212.08;;;18.05;52.90
56681;BME280;42558;52.388;13.390;2022-07-17T10:45:36;102203.55;;;18.43;52.98
56681;BME280;42558;52.388;13.390;2022-07-17T10:48:20;102203.80;;;18.19;52.61
56681;BME280;42558;52.388;13.390;2022-07-17T10:50:52;102207.12;;;18.11;53.99
56681;BME280;42558;52.388;13.390;2022-07-17T10:53:31;102208.41;;;18.19;53.31
56681;BME280;42558;52.388;13.390;2022-07-17T10:56:02;102209.46;;;18.16;52.47
56681;BME280;42558;52.388;13.390;2022-07-17T10:58:43;102198.65;;;18.64;52.36
56681;BME280;42558;52.388;13.390;2022-07-17T11:01:21;102197.00;;;19.16;50.54
56681;BME280;42558;52.388;13.390;2022-07-17T11:03:58;102190.23;;;19.32;49.74
56681;BME280;42558;52.388;13.390;2022-07-17T11:06:33;102199.33;;;19.25;49.40
56681;BME280;42558;52.388;13.390;2022-07-17T11:09:07;102194.12;;;19.01;48.70
56681;BME280;42558;52.388;13.390;2022-07-17T11:16:55;102196.58;;;18.77;49.57
56681;BME280;42558;52.388;13.390;2022-07-17T11:22:04;102197.46;;;18.38;50.23
56681;BME280;42558;52.388;13.390;2022-07-17T11:24:45;102195.30;;;18.72;50.36
56681;BME280;42558;52.388;13.390;2022-07-17T11:27:23;102193.02;;;18.86;49.68
56681;BME280;42558;52.388;13.390;2022-07-17T11:29:52;102196.99;;;19.10;49.70
56681;BME280;42558;52.388;13.390;2022-07-17T11:32:20;102196.30;;;19.35;48.54
56681;BME280;42558;52.388;13.390;2022-07-17T11:34:47;102200.95;;;19.76;48.45
56681;BME280;42558;52.388;13.390;2022-07-17T11:37:14;102195.95;;;19.82;47.47
56681;BME280;42558;52.388;13.390;2022-07-17T11:39:46;102192.52;;;19.95;46.97
56681;BME280;42558;52.388;13.390;2022-07-17T11:42:21;102193.99;;;19.64;46.21
56681;BME280;42558;52.388;13.390;2022-07-17T11:44:52;102193.80;;;19.35;47.39
56681;BME280;42558;52.388;13.390;2022-07-17T11:47:27;102188.98;;;19.37;47.63
56681;BME280;42558;52.388;13.390;2022-07-17T11:50:12;102182.73;;;19.88;47.55
56681;BME280;42558;52.388;13.390;2022-07-17T11:52:44;102182.92;;;19.74;46.27
56681;BME280;42558;52.388;13.390;2022-07-17T11:55:12;102186.67;;;19.26;48.12
56681;BME280;42558;52.388;13.390;2022-07-17T11:57:48;102188.09;;;19.33;48.63
56681;BME280;42558;52.388;13.390;2022-07-17T12:00:19;102192.19;;;19.16;46.90
56681;BME280;42558;52.388;13.390;2022-07-17T12:02:46;102187.88;;;18.95;46.86
56681;BME280;42558;52.388;13.390;2022-07-17T12:05:29;102179.00;;;19.21;46.22
56681;BME280;42558;52.388;13.390;2022-07-17T12:07:58;102177.75;;;19.42;46.37
56681;BME280;42558;52.388;13.390;2022-07-17T12:10:29;102179.36;;;19.59;46.25
56681;BME280;42558;52.388;13.390;2022-07-17T12:13:00;102182.90;;;19.87;46.07
56681;BME280;42558;52.388;13.390;2022-07-17T12:15:56;102184.34;;;19.89;45.60
56681;BME280;42558;52.388;13.390;2022-07-17T12:18:29;102175.44;;;19.72;44.69
56681;BME280;42558;52.388;13.390;2022-07-17T12:21:02;102176.83;;;19.94;44.56
56681;BME280;42558;52.388;13.390;2022-07-17T12:23:39;102174.14;;;19.92;43.19
56681;BME280;42558;52.388;13.390;2022-07-17T12:26:13;102178.27;;;19.82;44.05
56681;BME280;42558;52.388;13.390;2022-07-17T12:28:45;102168.98;;;19.90;44.64
56681;BME280;42558;52.388;13.390;2022-07-17T12:31:13;102167.89;;;19.98;45.02
56681;BME280;42558;52.388;13.390;2022-07-17T12:33:42;102169.80;;;20.14;45.14
56681;BME280;42558;52.388;13.390;2022-07-17T12:36:09;102164.16;;;20.44;44.92
56681;BME280;42558;52.388;13.390;2022-07-17T12:38:36;102162.21;;;20.36;43.65
56681;BME280;42558;52.388;13.390;2022-07-17T12:41:04;102161.80;;;20.02;44.85
56681;BME280;42558;52.388;13.390;2022-07-17T12:43:31;102151.80;;;20.00;45.23
56681;BME280;42558;52.388;13.390;2022-07-17T12:45:58;102152.14;;;20.12;45.83
56681;BME280;42558;52.388;13.390;2022-07-17T12:48:34;102149.16;;;20.39;44.75
56681;BME280;42558;52.388;13.390;2022-07-17T12:51:03;102141.89;;;20.65;44.76
56681;BME280;42558;52.388;13.390;2022-07-17T12:53:30;102143.98;;;20.77;43.79
56681;BME280;42558;52.388;13.390;2022-07-17T12:55:56;102141.05;;;20.57;44.06
56681;BME280;42558;52.388;13.390;2022-07-17T12:58:23;102139.30;;;20.54;44.30
56681;BME280;42558;52.388;13.390;2022-07-17T13:00:50;102141.45;;;20.51;43.12
56681;BME280;42558;52.388;13.390;2022-07-17T13:03:17;102139.46;;;20.51;43.48
56681;BME280;42558;52.388;13.390;2022-07-17T13:05:44;102137.36;;;20.46;43.47
56681;BME280;42558;52.388;13.390;2022-07-17T13:08:11;102135.38;;;20.48;43.48
56681;BME280;42558;52.388;13.390;2022-07-17T13:10:39;102133.86;;;20.65;44.84
56681;BME280;42558;52.388;13.390;2022-07-17T13:13:06;102136.90;;;20.66;44.00
56681;BME280;42558;52.388;13.390;2022-07-17T13:15:33;102135.42;;;20.73;45.48
56681;BME280;42558;52.388;13.390;2022-07-17T13:18:00;102135.73;;;21.04;44.50
56681;BME280;42558;52.388;13.390;2022-07-17T13:20:28;102130.31;;;20.61;44.24
56681;BME280;42558;52.388;13.390;2022-07-17T13:22:55;102129.40;;;20.64;44.74
56681;BME280;42558;52.388;13.390;2022-07-17T13:25:23;102127.57;;;20.70;44.43
56681;BME280;42558;52.388;13.390;2022-07-17T13:27:50;102124.72;;;20.71;44.19
56681;BME280;42558;52.388;13.390;2022-07-17T13:30:17;102119.13;;;20.77;44.36
56681;BME280;42558;52.388;13.390;2022-07-17T13:32:45;102112.59;;;20.64;43.74
56681;BME280;42558;52.388;13.390;2022-07-17T13:35:11;102114.90;;;20.92;43.91
56681;BME280;42558;52.388;13.390;2022-07-17T13:37:38;102115.55;;;21.00;43.23
56681;BME280;42558;52.388;13.390;2022-07-17T13:40:06;102119.10;;;21.05;43.13
56681;BME280;42558;52.388;13.390;2022-07-17T13:42:33;102114.78;;;21.08;42.80
56681;BME280;42558;52.388;13.390;2022-07-17T13:45:02;102114.74;;;21.13;43.53
56681;BME280;42558;52.388;13.390;2022-07-17T13:47:29;102102.80;;;21.30;43.62
56681;BME280;42558;52.388;13.390;2022-07-17T13:49:56;102094.02;;;21.51;43.25
56681;BME280;42558;52.388;13.390;2022-07-17T13:52:23;102091.80;;;21.57;43.32
56681;BME280;42558;52.388;13.390;2022-07-17T13:54:50;102090.50;;;21.63;43.21
56681;BME280;42558;52.388;13.390;2022-07-17T13:57:17;102090.98;;;21.82;41.92
56681;BME280;42558;52.388;13.390;2022-07-17T13:59:44;102090.40;;;21.70;41.43
56681;BME280;42558;52.388;13.390;2022-07-17T14:02:11;102084.04;;;21.80;41.27
56681;BME280;42558;52.388;13.390;2022-07-17T14:04:38;102080.59;;;21.98;40.80
56681;BME280;42558;52.388;13.390;2022-07-17T14:07:08;102084.92;;;21.94;40.96
56681;BME280;42558;52.388;13.390;2022-07-17T14:09:36;102081.52;;;21.95;40.56
56681;BME280;42558;52.388;13.390;2022-07-17T14:12:03;102082.52;;;21.72;41.35
56681;BME280;42558;52.388;13.390;2022-07-17T14:14:30;102078.02;;;22.04;40.35
56681;BME280;42558;52.388;13.390;2022-07-17T14:16:57;102072.13;;;22.02;39.70
56681;BME280;42558;52.388;13.390;2022-07-17T14:19:24;102072.95;;;22.22;40.51
56681;BME280;42558;52.388;13.390;2022-07-17T14:21:50;102072.89;;;22.52;40.33
56681;BME280;42558;52.388;13.390;2022-07-17T14:24:17;102074.98;;;22.56;40.68
56681;BME280;42558;52.388;13.390;2022-07-17T14:26:46;102074.45;;;22.31;40.08
56681;BME280;42558;52.388;13.390;2022-07-17T14:29:15;102073.81;;;22.38;39.67
56681;BME280;42558;52.388;13.390;2022-07-17T14:31:41;102070.21;;;22.26;39.22
56681;BME280;42558;52.388;13.390;2022-07-17T14:34:12;102068.67;;;22.35;39.30
56681;BME280;42558;52.388;13.390;2022-07-17T14:36:40;102060.27;;;22.33;39.03
56681;BME280;42558;52.388;13.390;2022-07-17T14:39:06;102051.58;;;22.51;39.06
56681;BME280;42558;52.388;13.390;2022-07-17T14:41:33;102054.96;;;22.40;39.94
56681;BME280;42558;52.388;13.390;2022-07-17T14:44:01;102054.71;;;22.56;39.27
56681;BME280;42558;52.388;13.390;2022-07-17T14:46:27;102052.84;;;22.72;38.66
56681;BME280;42558;52.388;13.390;2022-07-17T14:48:55;102055.31;;;23.08;38.41
56681;BME280;42558;52.388;13.390;2022-07-17T14:51:22;102056.52;;;23.02;37.63
56681;BME280;42558;52.388;13.390;2022-07-17T14:53:49;102057.02;;;23.03;37.67
56681;BME280;42558;52.388;13.390;2022-07-17T14:56:16;102054.75;;;23.11;37.49
56681;BME280;42558;52.388;13.390;2022-07-17T14:58:43;102051.38;;;23.29;37.69
56681;BME280;42558;52.388;13.390;2022-07-17T15:01:10;102055.21;;;23.34;36.39
56681;BME280;42558;52.388;13.390;2022-07-17T15:03:37;102053.91;;;23.27;36.15
56681;BME280;42558;52.388;13.390;2022-07-17T15:06:04;102051.89;;;23.09;37.78
56681;BME280;42558;52.388;13.390;2022-07-17T15:08:31;102048.82;;;23.50;37.05
56681;BME280;42558;52.388;13.390;2022-07-17T15:10:58;102042.36;;;23.59;37.30
56681;BME280;42558;52.388;13.390;2022-07-17T15:13:25;102038.10;;;23.92;36.55
56681;BME280;42558;52.388;13.390;2022-07-17T15:15:53;102039.23;;;23.90;36.51
56681;BME280;42558;52.388;13.390;2022-07-17T15:18:21;102041.89;;;23.91;36.43
56681;BME280;42558;52.388;13.390;2022-07-17T15:20:48;102046.13;;;24.02;35.98
56681;BME280;42558;52.388;13.390;2022-07-17T15:23:15;102036.39;;;23.96;35.37
56681;BME280;42558;52.388;13.390;2022-07-17T15:25:42;102036.15;;;23.99;35.95
56681;BME280;42558;52.388;13.390;2022-07-17T15:28:09;102038.42;;;23.77;36.50
56681;BME280;42558;52.388;13.390;2022-07-17T15:30:36;102040.33;;;24.05;36.14
56681;BME280;42558;52.388;13.390;2022-07-17T15:33:03;102039.90;;;24.24;35.50
56681;BME280;42558;52.388;13.390;2022-07-17T15:35:30;102034.89;;;24.23;34.64
56681;BME280;42558;52.388;13.390;2022-07-17T15:37:57;102034.45;;;24.11;34.61
56681;BME280;42558;52.388;13.390;2022-07-17T15:40:25;102028.13;;;23.96;34.42
56681;BME280;42558;52.388;13.390;2022-07-17T15:42:52;102024.27;;;24.00;35.30
56681;BME280;42558;52.388;13.390;2022-07-17T15:45:19;102022.33;;;23.82;35.23
56681;BME280;42558;52.388;13.390;2022-07-17T15:47:47;102028.45;;;24.13;34.41
56681;BME280;42558;52.388;13.390;2022-07-17T15:50:15;102021.35;;;23.85;34.37
56681;BME280;42558;52.388;13.390;2022-07-17T15:52:42;102021.75;;;23.84;35.31
56681;BME280;42558;52.388;13.390;2022-07-17T15:55:09;102023.84;;;23.95;34.08
56681;BME280;42558;52.388;13.390;2022-07-17T15:57:39;102022.79;;;23.86;34.52
56681;BME280;42558;52.388;13.390;2022-07-17T16:00:09;102020.21;;;24.05;34.87
56681;BME280;42558;52.388;13.390;2022-07-17T16:02:36;102013.92;;;24.28;34.30
56681;BME280;42558;52.388;13.390;2022-07-17T16:05:05;102008.75;;;24.28;34.27
56681;BME280;42558;52.388;13.390;2022-07-17T16:07:32;101997.20;;;23.80;33.90
56681;BME280;42558;52.388;13.390;2022-07-17T16:09:59;102000.41;;;23.98;34.95
56681;BME280;42558;52.388;13.390;2022-07-17T16:12:27;101996.12;;;23.54;34.44
56681;BME280;42558;52.388;13.390;2022-07-17T16:14:59;101996.04;;;24.01;34.28
56681;BME280;42558;52.388;13.390;2022-07-17T16:17:26;101995.73;;;24.06;34.49
56681;BME280;42558;52.388;13.390;2022-07-17T16:19:56;101994.72;;;24.19;33.14
56681;BME280;42558;52.388;13.390;2022-07-17T16:22:23;101987.69;;;24.51;32.58
56681;BME280;42558;52.388;13.390;2022-07-17T16:24:50;101990.45;;;24.41;32.87
56681;BME280;42558;52.388;13.390;2022-07-17T16:27:17;101987.73;;;24.10;33.82
56681;BME280;42558;52.388;13.390;2022-07-17T16:29:44;101985.55;;;24.12;32.98
56681;BME280;42558;52.388;13.390;2022-07-17T16:32:11;101983.68;;;24.14;32.73
56681;BME280;42558;52.388;13.390;2022-07-17T16:34:38;101983.34;;;24.14;32.62
56681;BME280;42558;52.388;13.390;2022-07-17T16:37:05;101979.18;;;24.00;33.99
56681;BME280;42558;52.388;13.390;2022-07-17T16:39:31;101983.98;;;24.02;33.53
56681;BME280;42558;52.388;13.390;2022-07-17T16:42:07;101977.13;;;23.79;33.62
56681;BME280;42558;52.388;13.390;2022-07-17T16:44:38;101974.40;;;23.96;33.72
56681;BME280;42558;52.388;13.390;2022-07-17T16:47:05;101978.84;;;24.22;33.43
56681;BME280;42558;52.388;13.390;2022-07-17T16:49:32;101977.11;;;24.20;32.76
56681;BME280;42558;52.388;13.390;2022-07-17T16:52:01;101978.08;;;23.85;34.18
56681;BME280;42558;52.388;13.390;2022-07-17T16:54:28;101983.04;;;24.20;34.11
56681;BME280;42558;52.388;13.390;2022-07-17T16:56:55;101981.94;;;24.20;33.13
56681;BME280;42558;52.388;13.390;2022-07-17T16:59:22;101978.94;;;23.95;34.16
56681;BME280;42558;52.388;13.390;2022-07-17T17:01:52;101979.86;;;23.94;34.31
56681;BME280;42558;52.388;13.390;2022-07-17T17:04:19;101977.77;;;23.98;34.83
56681;BME280;42558;52.388;13.390;2022-07-17T17:06:46;101980.80;;;24.15;33.59
56681;BME280;42558;52.388;13.390;2022-07-17T17:09:14;101976.36;;;23.89;33.83
56681;BME280;42558;52.388;13.390;2022-07-17T17:11:40;101973.98;;;23.76;34.00
56681;BME280;42558;52.388;13.390;2022-07-17T17:14:09;101969.10;;;23.50;34.02
56681;BME280;42558;52.388;13.390;2022-07-17T17:16:35;101971.20;;;23.79;34.04
56681;BME280;42558;52.388;13.390;2022-07-17T17:19:03;101969.23;;;23.94;34.04
56681;BME280;42558;52.388;13.390;2022-07-17T17:21:30;101974.08;;;23.95;33.83
56681;BME280;42558;52.388;13.390;2022-07-17T17:23:56;101970.40;;;23.75;33.54
56681;BME280;42558;52.388;13.390;2022-07-17T17:26:23;101969.98;;;23.94;33.36
56681;BME280;42558;52.388;13.390;2022-07-17T17:28:50;101969.12;;;23.99;33.68
56681;BME280;42558;52.388;13.390;2022-07-17T17:31:17;101971.35;;;23.88;33.65
56681;BME280;42558;52.388;13.390;2022-07-17T17:33:44;101967.70;;;23.99;34.54
56681;BME280;42558;52.388;13.390;2022-07-17T17:36:12;101965.55;;;23.91;34.17
56681;BME280;42558;52.388;13.390;2022-07-17T17:38:39;101958.73;;;23.66;34.50
56681;BME280;42558;52.388;13.390;2022-07-17T17:41:06;101960.84;;;23.32;35.15
56681;BME280;42558;52.388;13.390;2022-07-17T17:43:33;101964.95;;;23.25;35.15
56681;BME280;42558;52.388;13.390;2022-07-17T17:46:00;101963.34;;;23.06;35.45
56681;BME280;42558;52.388;13.390;2022-07-17T17:48:28;101965.70;;;22.94;36.21
56681;BME280;42558;52.388;13.390;2022-07-17T17:50:55;101969.25;;;22.75;36.77
56681;BME280;42558;52.388;13.390;2022-07-17T17:53:22;101964.10;;;22.62;37.30
56681;BME280;42558;52.388;13.390;2022-07-17T17:55:49;101967.52;;;22.50;38.33
56681;BME280;42558;52.388;13.390;2022-07-17T17:58:18;101971.88;;;22.35;39.12
56681;BME280;42558;52.388;13.390;2022-07-17T18:00:46;101974.36;;;22.38;38.90
56681;BME280;42558;52.388;13.390;2022-07-17T18:03:13;101976.55;;;22.36;39.16
56681;BME280;42558;52.388;13.390;2022-07-17T18:05:40;101979.13;;;22.31;39.31
56681;BME280;42558;52.388;13.390;2022-07-17T18:08:08;101978.67;;;22.26;38.41
56681;BME280;42558;52.388;13.390;2022-07-17T18:10:38;101977.02;;;22.16;39.72
56681;BME280;42558;52.388;13.390;2022-07-17T18:13:06;101979.91;;;22.26;39.50
56681;BME280;42558;52.388;13.390;2022-07-17T18:15:33;101976.92;;;22.22;39.56
56681;BME280;42558;52.388;13.390;2022-07-17T18:18:01;101982.98;;;22.13;38.74
56681;BME280;42558;52.388;13.390;2022-07-17T18:20:28;101986.62;;;22.08;38.95
56681;BME280;42558;52.388;13.390;2022-07-17T18:22:55;101990.17;;;21.96;39.82
56681;BME280;42558;52.388;13.390;2022-07-17T18:25:22;101988.60;;;21.80;39.79
56681;BME280;42558;52.388;13.390;2022-07-17T18:27:50;101988.22;;;21.82;40.49
56681;BME280;42558;52.388;13.390;2022-07-17T18:30:17;101985.55;;;21.80;41.17
56681;BME280;42558;52.388;13.390;2022-07-17T18:32:44;101989.80;;;21.70;42.36
56681;BME280;42558;52.388;13.390;2022-07-17T18:35:11;101984.97;;;21.41;43.74
56681;BME280;42558;52.388;13.390;2022-07-17T18:37:38;101984.77;;;21.23;44.34
56681;BME280;42558;52.388;13.390;2022-07-17T18:40:05;101985.34;;;21.21;44.83
56681;BME280;42558;52.388;13.390;2022-07-17T18:42:34;101988.10;;;21.14;45.33
56681;BME280;42558;52.388;13.390;2022-07-17T18:45:03;101994.92;;;20.92;46.26
56681;BME280;42558;52.388;13.390;2022-07-17T18:47:30;101996.59;;;20.68;45.91
56681;BME280;42558;52.388;13.390;2022-07-17T18:49:58;101992.17;;;20.60;45.06
56681;BME280;42558;52.388;13.390;2022-07-17T18:52:24;101995.05;;;20.59;46.08
56681;BME280;42558;52.388;13.390;2022-07-17T18:54:51;101996.39;;;20.47;47.15
56681;BME280;42558;52.388;13.390;2022-07-17T18:57:18;101999.11;;;20.36;48.46
56681;BME280;42558;52.388;13.390;2022-07-17T18:59:45;101997.95;;;20.23;48.59
56681;BME280;42558;52.388;13.390;2022-07-17T19:02:22;101999.61;;;20.15;49.24
56681;BME280;42558;52.388;13.390;2022-07-17T19:04:49;102005.17;;;20.10;49.59
56681;BME280;42558;52.388;13.390;2022-07-17T19:07:16;102007.55;;;20.01;50.04
56681;BME280;42558;52.388;13.390;2022-07-17T19:09:43;102003.48;;;19.95;50.43
56681;BME280;42558;52.388;13.390;2022-07-17T19:12:13;102007.94;;;19.92;50.36
56681;BME280;42558;52.388;13.390;2022-07-17T19:14:42;102010.27;;;19.93;50.54
56681;BME280;42558;52.388;13.390;2022-07-17T19:17:13;102006.93;;;19.82;50.79
56681;BME280;42558;52.388;13.390;2022-07-17T19:19:43;102008.42;;;19.67;51.22
56681;BME280;42558;52.388;13.390;2022-07-17T19:22:10;102011.84;;;19.62;51.14
56681;BME280;42558;52.388;13.390;2022-07-17T19:24:37;102013.27;;;19.57;51.18
56681;BME280;42558;52.388;13.390;2022-07-17T19:27:04;102014.52;;;19.50;51.59
56681;BME280;42558;52.388;13.390;2022-07-17T19:29:31;102015.80;;;19.37;51.87
56681;BME280;42558;52.388;13.390;2022-07-17T19:31:57;102022.10;;;19.18;52.60
56681;BME280;42558;52.388;13.390;2022-07-17T19:34:25;102024.95;;;19.09;53.07
56681;BME280;42558;52.388;13.390;2022-07-17T19:36:52;102026.73;;;19.05;53.30
56681;BME280;42558;52.388;13.390;2022-07-17T19:39:18;102030.67;;;18.96;53.61
56681;BME280;42558;52.388;13.390;2022-07-17T19:41:45;102033.54;;;18.80;54.04
56681;BME280;42558;52.388;13.390;2022-07-17T19:44:12;102038.50;;;18.67;54.86
56681;BME280;42558;52.388;13.390;2022-07-17T19:46:39;102044.70;;;18.49;55.28
56681;BME280;42558;52.388;13.390;2022-07-17T19:49:07;102046.97;;;18.31;55.75
56681;BME280;42558;52.388;13.390;2022-07-17T19:51:34;102047.66;;;18.19;56.49
56681;BME280;42558;52.388;13.390;2022-07-17T19:54:00;102048.73;;;18.19;56.39
56681;BME280;42558;52.388;13.390;2022-07-17T19:56:27;102046.92;;;18.13;56.66
56681;BME280;42558;52.388;13.390;2022-07-17T19:58:55;102048.88;;;18.08;57.31
56681;BME280;42558;52.388;13.390;2022-07-17T20:01:23;102050.11;;;18.10;57.82
56681;BME280;42558;52.388;13.390;2022-07-17T20:03:51;102048.13;;;18.03;57.85
56681;BME280;42558;52.388;13.390;2022-07-17T20:06:18;102048.33;;;17.68;58.32
56681;BME280;42558;52.388;13.390;2022-07-17T20:08:46;102048.22;;;17.52;59.32
56681;BME280;42558;52.388;13.390;2022-07-17T20:11:13;102047.62;;;17.38;59.81
56681;BME280;42558;52.388;13.390;2022-07-17T20:13:41;102048.86;;;17.39;60.02
56681;BME280;42558;52.388;13.390;2022-07-17T20:16:08;102040.86;;;17.39;60.36